createdAt,value
2018-11-04T00:00:19.129Z,22.6
2018-11-04T00:02:18.850Z,23.3
2018-11-04T00:04:19.581Z,21.8
2018-11-04T00:06:19.595Z,23.2
2018-11-04T00:08:19.347Z,27
2018-11-04T00:10:19.519Z,24
2018-11-04T00:12:19.245Z,24
2018-11-04T00:14:18.978Z,27.1
2018-11-04T00:16:19.436Z,29.8
2018-11-04T00:18:19.239Z,35.1
2018-11-04T00:20:19.095Z,30.7
2018-11-04T00:22:18.901Z,35.3
2018-11-04T00:24:19.654Z,23.6
2018-11-04T00:26:19.122Z,35.7
2018-11-04T00:28:18.881Z,28.8
2018-11-04T00:30:19.685Z,19.7
2018-11-04T00:32:19.409Z,18.9
2018-11-04T00:34:19.184Z,15
2018-11-04T00:36:19.472Z,19.7
2018-11-04T00:38:19.213Z,21.4
2018-11-04T00:40:19.428Z,20.1
2018-11-04T00:42:19.185Z,17.1
2018-11-04T00:44:18.957Z,26.4
2018-11-04T00:46:18.747Z,24.2
2018-11-04T00:48:19.614Z,14.1
2018-11-04T00:50:19.412Z,20.7
2018-11-04T00:52:19.142Z,26.4
2018-11-04T00:54:18.894Z,19
2018-11-04T00:56:19.424Z,13.1
2018-11-04T00:58:19.189Z,21.7
2018-11-04T01:00:18.920Z,19.3
2018-11-04T01:02:19.645Z,18.9
2018-11-04T01:04:19.404Z,17.1
2018-11-04T01:06:18.933Z,18.6
2018-11-04T01:08:18.713Z,12.9
2018-11-04T01:10:18.932Z,17.4
2018-11-04T01:12:19.654Z,16.1
2018-11-04T01:14:19.396Z,20.5
2018-11-04T01:16:19.473Z,18.5
2018-11-04T01:18:19.336Z,13.9
2018-11-04T01:20:19.071Z,16.2
2018-11-04T01:22:18.822Z,18.3
2018-11-04T01:24:19.739Z,16.3
2018-11-04T01:26:19.346Z,17.6
2018-11-04T01:28:19.094Z,14.3
2018-11-04T01:30:19.009Z,11.8
2018-11-04T01:32:18.803Z,30.2
2018-11-04T01:34:19.543Z,13.8
2018-11-04T01:36:18.993Z,15.3
2018-11-04T01:38:18.752Z,10.7
2018-11-04T01:40:18.982Z,19.7
2018-11-04T01:42:18.696Z,15.2
2018-11-04T01:44:19.437Z,17.2
2018-11-04T01:46:19.453Z,13.3
2018-11-04T01:48:19.188Z,10.1
2018-11-04T01:50:18.918Z,16
2018-11-04T01:52:18.672Z,15.8
2018-11-04T01:54:19.459Z,13.9
2018-11-04T01:56:18.962Z,14.2
2018-11-04T01:58:18.713Z,12.5
2018-11-04T02:00:19.484Z,13.6
2018-11-04T02:02:19.251Z,18.2
2018-11-04T02:04:18.993Z,18.2
2018-11-04T02:06:19.497Z,20.5
2018-11-04T02:08:19.266Z,17.1
2018-11-04T02:10:19.468Z,17.4
2018-11-04T02:12:19.212Z,14.2
2018-11-04T02:14:18.995Z,26.9
2018-11-04T02:16:19.514Z,12.4
2018-11-04T02:18:19.366Z,13.6
2018-11-04T02:20:19.142Z,13
2018-11-04T02:22:18.903Z,25.3
2018-11-04T02:24:19.676Z,12.3
2018-11-04T02:26:19.233Z,16.3
2018-11-04T02:28:18.963Z,19.2
2018-11-04T02:30:18.746Z,20.6
2018-11-04T02:32:19.223Z,18.6
2018-11-04T02:34:18.976Z,10.1
2018-11-04T02:36:19.115Z,13.4
2018-11-04T02:38:18.842Z,31.1
2018-11-04T02:40:19.120Z,20.8
2018-11-04T02:42:18.907Z,18.2
2018-11-04T02:44:19.626Z,22.7
2018-11-04T02:46:19.627Z,23.2
2018-11-04T02:48:19.379Z,17.1
2018-11-04T02:50:19.128Z,19.6
2018-11-04T02:52:18.859Z,14.8
2018-11-04T02:54:19.616Z,21.6
2018-11-04T02:56:18.838Z,20.6
2018-11-04T02:58:19.566Z,21.6
2018-11-04T03:00:19.377Z,15.5
2018-11-04T03:02:19.120Z,25
2018-11-04T03:04:18.873Z,19.7
2018-11-04T03:06:19.457Z,28.4
2018-11-04T03:08:19.180Z,25.5
2018-11-04T03:10:19.401Z,18.7
2018-11-04T03:12:19.135Z,14.8
2018-11-04T03:14:18.862Z,21.3
2018-11-04T03:16:18.887Z,16.2
2018-11-04T03:18:18.698Z,16.1
2018-11-04T03:20:19.415Z,20.2
2018-11-04T03:22:19.159Z,17.4
2018-11-04T03:24:18.872Z,17.9
2018-11-04T03:26:19.419Z,19.2
2018-11-04T03:28:19.236Z,22.5
2018-11-04T03:30:18.996Z,20.1
2018-11-04T03:32:18.717Z,21.8
2018-11-04T03:34:19.498Z,20.2
2018-11-04T03:36:19.315Z,16.7
2018-11-04T03:38:19.081Z,16.9
2018-11-04T03:40:19.384Z,24.1
2018-11-04T03:42:19.096Z,24.6
2018-11-04T03:44:18.812Z,22.2
2018-11-04T03:46:19.680Z,25.3
2018-11-04T03:48:19.420Z,21.4
2018-11-04T03:50:19.156Z,22.2
2018-11-04T03:52:18.905Z,23.8
2018-11-04T03:54:19.639Z,24.3
2018-11-04T03:56:19.163Z,19.4
2018-11-04T03:58:18.936Z,28.3
2018-11-04T04:00:19.689Z,23.5
2018-11-04T04:02:19.285Z,23.1
2018-11-04T04:04:19.073Z,22.4
2018-11-04T04:06:19.555Z,29.4
2018-11-04T04:08:19.330Z,22.1
2018-11-04T04:10:19.587Z,28.5
2018-11-04T04:12:19.340Z,18.6
2018-11-04T04:14:19.073Z,21.8
2018-11-04T04:16:19.587Z,25.8
2018-11-04T04:18:19.446Z,27.6
2018-11-04T04:20:19.211Z,25.7
2018-11-04T04:22:18.973Z,33.6
2018-11-04T04:24:18.743Z,27.6
2018-11-04T04:26:18.751Z,24.9
2018-11-04T04:28:19.513Z,25.1
2018-11-04T04:30:19.279Z,23.6
2018-11-04T04:32:19.029Z,32.3
2018-11-04T04:34:18.779Z,18.9
2018-11-04T04:36:18.800Z,24.6
2018-11-04T04:38:19.552Z,24.5
2018-11-04T04:40:18.717Z,28.1
2018-11-04T04:42:19.418Z,24.9
2018-11-04T04:44:19.141Z,28.5
2018-11-04T04:46:19.660Z,28.5
2018-11-04T04:48:19.430Z,25.1
2018-11-04T04:50:19.169Z,29.9
2018-11-04T04:52:18.931Z,28.1
2018-11-04T04:54:19.646Z,20.7
2018-11-04T04:56:19.232Z,31.7
2018-11-04T04:58:19.004Z,28.9
2018-11-04T05:00:18.770Z,29.2
2018-11-04T05:02:19.503Z,27.4
2018-11-04T05:04:19.295Z,26.5
2018-11-04T05:06:18.750Z,25.3
2018-11-04T05:08:19.515Z,25.6
2018-11-04T05:10:18.762Z,24.8
2018-11-04T05:12:19.492Z,33.3
2018-11-04T05:14:19.245Z,27.1
2018-11-04T05:16:18.755Z,24.1
2018-11-04T05:18:19.579Z,22.9
2018-11-04T05:20:19.324Z,26.1
2018-11-04T05:22:19.079Z,21.9
2018-11-04T05:24:18.828Z,26.5
2018-11-04T05:26:18.854Z,24.9
2018-11-04T05:28:19.628Z,22.3
2018-11-04T05:30:19.375Z,26.2
2018-11-04T05:32:19.107Z,23.7
2018-11-04T05:34:18.872Z,25.4
2018-11-04T05:36:19.081Z,25.7
2018-11-04T05:38:18.938Z,24.7
2018-11-04T05:40:19.208Z,27.6
2018-11-04T05:42:18.977Z,24.3
2018-11-04T05:44:18.721Z,26
2018-11-04T05:46:18.743Z,30.8
2018-11-04T05:48:19.480Z,25.5
2018-11-04T05:50:19.218Z,38.4
2018-11-04T05:52:18.979Z,24.6
2018-11-04T05:54:18.729Z,27.9
2018-11-04T05:56:19.359Z,26.3
2018-11-04T05:58:19.164Z,36.2
2018-11-04T06:00:18.905Z,27.4
2018-11-04T06:02:19.664Z,24.2
2018-11-04T06:04:19.429Z,27.8
2018-11-04T06:06:19.406Z,27.2
2018-11-04T06:08:19.149Z,25.5
2018-11-04T06:10:19.377Z,31.6
2018-11-04T06:12:19.126Z,28.7
2018-11-04T06:14:18.912Z,26.6
2018-11-04T06:16:19.432Z,33.3
2018-11-04T06:18:19.286Z,26.3
2018-11-04T06:20:19.088Z,29.3
2018-11-04T06:22:18.857Z,24.9
2018-11-04T06:24:19.612Z,27.3
2018-11-04T06:26:19.253Z,28
2018-11-04T06:28:19.025Z,29.9
2018-11-04T06:30:18.806Z,30.5
2018-11-04T06:32:19.570Z,26.2
2018-11-04T06:34:19.408Z,27.4
2018-11-04T06:36:19.052Z,33.6
2018-11-04T06:38:18.822Z,29.7
2018-11-04T06:40:19.102Z,26.8
2018-11-04T06:42:18.870Z,28.2
2018-11-04T06:44:19.622Z,29.8
2018-11-04T06:46:19.465Z,28.6
2018-11-04T06:48:19.094Z,29.2
2018-11-04T06:50:18.878Z,28.6
2018-11-04T06:52:19.635Z,27
2018-11-04T06:54:19.357Z,31.7
2018-11-04T06:56:18.843Z,20.5
2018-11-04T06:58:19.584Z,30.3
2018-11-04T07:00:19.347Z,28.1
2018-11-04T07:02:19.180Z,31.7
2018-11-04T07:04:18.892Z,26
2018-11-04T07:06:18.948Z,31.7
2018-11-04T07:08:18.700Z,31.6
2018-11-04T07:10:18.897Z,30.7
2018-11-04T07:12:19.622Z,30.3
2018-11-04T07:14:19.398Z,39.2
2018-11-04T07:16:19.209Z,39.9
2018-11-04T07:18:19.053Z,30.1
2018-11-04T07:20:18.915Z,29.7
2018-11-04T07:22:19.669Z,40.9
2018-11-04T07:24:19.410Z,27.6
2018-11-04T07:26:19.004Z,32.2
2018-11-04T07:28:18.764Z,35.3
2018-11-04T07:30:19.526Z,25.9
2018-11-04T07:32:19.296Z,25.4
2018-11-04T07:34:19.091Z,29.1
2018-11-04T07:36:18.869Z,30.6
2018-11-04T07:38:19.633Z,37.3
2018-11-04T07:40:18.866Z,31.7
2018-11-04T07:42:19.642Z,34.5
2018-11-04T07:44:19.520Z,31.1
2018-11-04T07:46:19.197Z,32.2
2018-11-04T07:48:18.958Z,44.6
2018-11-04T07:50:18.708Z,27.7
2018-11-04T07:52:19.469Z,33.4
2018-11-04T07:54:19.248Z,28.4
2018-11-04T07:56:19.045Z,36.4
2018-11-04T07:58:18.801Z,35.9
2018-11-04T08:00:19.566Z,29.2
2018-11-04T08:02:19.296Z,31.1
2018-11-04T08:04:19.334Z,37.6
2018-11-04T08:06:18.987Z,33.6
2018-11-04T08:08:18.712Z,38.3
2018-11-04T08:10:19.169Z,28.7
2018-11-04T08:12:18.918Z,43.2
2018-11-04T08:14:19.655Z,38.5
2018-11-04T08:16:18.872Z,39.2
2018-11-04T08:18:18.680Z,36.5
2018-11-04T08:20:19.465Z,37.4
2018-11-04T08:22:19.222Z,29.4
2018-11-04T08:24:18.990Z,40.5
2018-11-04T08:26:19.476Z,37.3
2018-11-04T08:28:19.245Z,43.9
2018-11-04T08:30:19.033Z,44.4
2018-11-04T08:32:18.767Z,43.1
2018-11-04T08:34:19.546Z,45.5
2018-11-04T08:36:19.100Z,37.3
2018-11-04T08:38:18.860Z,31.5
2018-11-04T08:40:19.331Z,41.4
2018-11-04T08:42:19.118Z,37.8
2018-11-04T08:44:18.846Z,40.8
2018-11-04T08:46:19.354Z,40.1
2018-11-04T08:48:19.125Z,47.9
2018-11-04T08:50:19.019Z,46
2018-11-04T08:52:18.862Z,43.2
2018-11-04T08:54:19.634Z,43
2018-11-04T08:56:19.173Z,37.2
2018-11-04T08:58:18.978Z,44.1
2018-11-04T09:00:18.734Z,42.3
2018-11-04T09:02:19.468Z,38.5
2018-11-04T09:04:19.276Z,42.1
2018-11-04T09:06:18.871Z,45.4
2018-11-04T09:08:18.706Z,38.7
2018-11-04T09:10:18.976Z,38.8
2018-11-04T09:12:18.727Z,43.4
2018-11-04T09:14:19.709Z,41.3
2018-11-04T09:16:18.936Z,49.7
2018-11-04T09:18:18.776Z,51.6
2018-11-04T09:20:19.552Z,47.3
2018-11-04T09:22:19.753Z,44.3
2018-11-04T09:24:19.603Z,44.7
2018-11-04T09:26:19.128Z,42
2018-11-04T09:28:18.874Z,45.6
2018-11-04T09:30:19.645Z,42.4
2018-11-04T09:32:19.410Z,45.8
2018-11-04T09:34:19.139Z,34.4
2018-11-04T09:36:19.610Z,43.2
2018-11-04T09:38:19.656Z,41.7
2018-11-04T09:40:18.882Z,33.7
2018-11-04T09:42:19.657Z,47.5
2018-11-04T09:44:19.405Z,40.9
2018-11-04T09:46:18.863Z,41.3
2018-11-04T09:48:19.607Z,44.1
2018-11-04T09:50:19.396Z,41.7
2018-11-04T09:52:18.934Z,40.4
2018-11-04T09:54:18.727Z,35.1
2018-11-04T09:56:19.339Z,41.7
2018-11-04T09:58:19.094Z,45.2
2018-11-04T10:00:18.846Z,49.2
2018-11-04T10:02:19.642Z,43.5
2018-11-04T10:04:19.411Z,45
2018-11-04T10:06:19.484Z,47.2
2018-11-04T10:08:19.259Z,39.2
2018-11-04T10:10:19.536Z,35.9
2018-11-04T10:12:19.287Z,36.3
2018-11-04T10:14:19.075Z,49.5
2018-11-04T10:16:19.311Z,38.8
2018-11-04T10:18:19.171Z,44.8
2018-11-04T10:20:19.738Z,45
2018-11-04T10:22:18.857Z,42.5
2018-11-04T10:24:19.588Z,42
2018-11-04T10:26:19.664Z,42.4
2018-11-04T10:28:19.413Z,42.4
2018-11-04T10:30:19.413Z,52.7
2018-11-04T10:32:19.248Z,39.8
2018-11-04T10:34:19.009Z,47.6
2018-11-04T10:36:19.682Z,46.3
2018-11-04T10:38:19.499Z,42.4
2018-11-04T10:40:18.769Z,46.4
2018-11-04T10:42:19.777Z,34.9
2018-11-04T10:44:19.622Z,45.8
2018-11-04T10:46:19.224Z,55.6
2018-11-04T10:48:18.985Z,41.6
2018-11-04T10:50:18.723Z,49.3
2018-11-04T10:52:19.471Z,39.1
2018-11-04T10:54:19.246Z,47.7
2018-11-04T10:56:18.845Z,42.3
2018-11-04T10:58:19.622Z,47.1
2018-11-04T11:00:19.366Z,44.1
2018-11-04T11:02:19.127Z,42.6
2018-11-04T11:04:18.896Z,56.5
2018-11-04T11:06:18.761Z,40.4
2018-11-04T11:08:19.532Z,54.8
2018-11-04T11:10:18.772Z,43.2
2018-11-04T11:12:19.538Z,40.4
2018-11-04T11:14:19.308Z,47
2018-11-04T11:16:19.291Z,52.3
2018-11-04T11:18:19.161Z,43.2
2018-11-04T11:20:18.925Z,41.5
2018-11-04T11:22:19.731Z,49.3
2018-11-04T11:24:19.517Z,47.9
2018-11-04T11:26:19.022Z,57.8
2018-11-04T11:28:18.763Z,44.2
2018-11-04T11:30:19.944Z,54.8
2018-11-04T11:32:18.979Z,49.1
2018-11-04T11:34:18.732Z,45.6
2018-11-04T11:36:18.843Z,41.9
2018-11-04T11:38:19.613Z,42.9
2018-11-04T11:40:18.824Z,45.5
2018-11-04T11:42:19.704Z,43.6
2018-11-04T11:44:19.527Z,42.7
2018-11-04T11:46:19.236Z,46.8
2018-11-04T11:48:19.026Z,48.5
2018-11-04T11:50:18.792Z,39.5
2018-11-04T11:52:19.641Z,41.6
2018-11-04T11:54:19.431Z,46.8
2018-11-04T11:56:19.455Z,48.1
2018-11-04T11:58:19.201Z,45.7
2018-11-04T12:00:18.957Z,45.6
2018-11-04T12:02:19.637Z,44.1
2018-11-04T12:04:19.483Z,38.9
2018-11-04T12:06:19.555Z,45.2
2018-11-04T12:08:19.318Z,45.8
2018-11-04T12:10:19.541Z,41.9
2018-11-04T12:12:19.330Z,46.2
2018-11-04T12:14:19.077Z,47.9
2018-11-04T12:16:18.802Z,49.9
2018-11-04T12:18:19.656Z,44.2
2018-11-04T12:20:19.433Z,43
2018-11-04T12:22:18.972Z,42.1
2018-11-04T12:24:18.759Z,49.9
2018-11-04T12:26:19.218Z,48
2018-11-04T12:28:18.975Z,41.9
2018-11-04T12:30:18.736Z,50.9
2018-11-04T12:32:19.468Z,50
2018-11-04T12:34:19.250Z,43.9
2018-11-04T12:36:18.872Z,51
2018-11-04T12:38:19.634Z,43.9
2018-11-04T12:40:18.931Z,50
2018-11-04T12:42:19.667Z,45.1
2018-11-04T12:44:19.396Z,59
2018-11-04T12:46:18.972Z,51.8
2018-11-04T12:48:18.733Z,45.6
2018-11-04T12:50:19.496Z,61.2
2018-11-04T12:52:19.726Z,49.2
2018-11-04T12:54:19.551Z,51.5
2018-11-04T12:56:19.330Z,52.5
2018-11-04T12:58:19.084Z,44.9
2018-11-04T13:00:18.869Z,48.5
2018-11-04T13:02:19.642Z,52.7
2018-11-04T13:04:19.392Z,49.9
2018-11-04T13:06:19.610Z,59.7
2018-11-04T13:08:19.385Z,55.7
2018-11-04T13:10:19.962Z,56.9
2018-11-04T13:12:18.754Z,50.4
2018-11-04T13:14:19.549Z,50.5
2018-11-04T13:16:19.242Z,51.6
2018-11-04T13:18:19.085Z,51
2018-11-04T13:20:18.850Z,56.3
2018-11-04T13:22:19.634Z,50.9
2018-11-04T13:24:19.368Z,51.1
2018-11-04T13:26:18.890Z,53.8
2018-11-04T13:28:19.661Z,50.7
2018-11-04T13:30:19.441Z,57.4
2018-11-04T13:32:18.953Z,60.4
2018-11-04T13:34:18.729Z,65
2018-11-04T13:36:19.184Z,57.1
2018-11-04T13:38:18.948Z,61.4
2018-11-04T13:40:19.220Z,58.8
2018-11-04T13:42:18.985Z,62.3
2018-11-04T13:44:18.792Z,60.7
2018-11-04T13:46:19.414Z,61.5
2018-11-04T13:48:19.203Z,61.7
2018-11-04T13:50:18.973Z,65.6
2018-11-04T13:52:18.737Z,49.1
2018-11-04T13:54:19.513Z,59
2018-11-04T13:56:19.048Z,62
2018-11-04T13:58:18.799Z,64.4
2018-11-04T14:00:19.581Z,51.5
2018-11-04T14:02:19.188Z,53.3
2018-11-04T14:04:18.975Z,54.9
2018-11-04T14:06:19.483Z,61.2
2018-11-04T14:08:19.241Z,63.3
2018-11-04T14:10:19.586Z,53.4
2018-11-04T14:12:19.378Z,56.1
2018-11-04T14:14:19.131Z,58.9
2018-11-04T14:16:19.186Z,63.1
2018-11-04T14:18:19.052Z,54.7
2018-11-04T14:20:18.844Z,58.8
2018-11-04T14:22:19.581Z,60.3
2018-11-04T14:24:19.380Z,63.8
2018-11-04T14:26:18.976Z,69.8
2018-11-04T14:28:18.741Z,57.8
2018-11-04T14:30:19.552Z,63.3
2018-11-04T14:32:19.311Z,55.3
2018-11-04T14:34:19.067Z,66.8
2018-11-04T14:36:19.342Z,63.2
2018-11-04T14:38:19.115Z,51.5
2018-11-04T14:40:19.303Z,58.9
2018-11-04T14:42:19.036Z,66.2
2018-11-04T14:44:18.760Z,64.9
2018-11-04T14:46:19.451Z,65.2
2018-11-04T14:48:19.205Z,68.5
2018-11-04T14:50:19.091Z,64.2
2018-11-04T14:52:18.855Z,56.5
2018-11-04T14:54:19.609Z,80.3
2018-11-04T14:56:18.809Z,70.1
2018-11-04T14:58:19.581Z,72.7
2018-11-04T15:00:19.338Z,61.4
2018-11-04T15:02:19.123Z,58.1
2018-11-04T15:04:18.881Z,71
2018-11-04T15:06:19.044Z,59.3
2018-11-04T15:08:18.833Z,63.8
2018-11-04T15:10:19.083Z,63.3
2018-11-04T15:12:18.858Z,74.4
2018-11-04T15:14:19.631Z,67.1
2018-11-04T15:16:19.205Z,69.2
2018-11-04T15:18:19.038Z,51.9
2018-11-04T15:20:18.784Z,62.1
2018-11-04T15:22:19.541Z,61.6
2018-11-04T15:24:19.277Z,65.7
2018-11-04T15:26:19.528Z,54.8
2018-11-04T15:28:19.310Z,62.8
2018-11-04T15:30:19.047Z,71.9
2018-11-04T15:32:18.826Z,71.7
2018-11-04T15:34:19.929Z,70.6
2018-11-04T15:36:19.110Z,66
2018-11-04T15:38:18.977Z,71.7
2018-11-04T15:40:19.397Z,67.4
2018-11-04T15:42:19.169Z,66.7
2018-11-04T15:44:18.943Z,68.5
2018-11-04T15:46:19.061Z,74.3
2018-11-04T15:48:18.811Z,62.3
2018-11-04T15:50:19.670Z,65
2018-11-04T15:52:19.406Z,67.3
2018-11-04T15:54:19.149Z,61.3
2018-11-04T15:56:19.245Z,65.5
2018-11-04T15:58:18.972Z,60.7
2018-11-04T16:00:18.723Z,64.9
2018-11-04T16:02:19.472Z,54.2
2018-11-04T16:04:19.383Z,59.8
2018-11-04T16:06:18.943Z,53.5
2018-11-04T16:08:18.686Z,73.7
2018-11-04T16:10:18.919Z,75.4
2018-11-04T16:12:19.633Z,70.7
2018-11-04T16:14:19.426Z,65.9
2018-11-04T16:16:18.955Z,67.3
2018-11-04T16:18:19.040Z,58.9
2018-11-04T16:20:18.988Z,67.7
2018-11-04T16:22:19.663Z,67
2018-11-04T16:24:19.442Z,59.3
2018-11-04T16:26:18.905Z,67.6
2018-11-04T16:28:19.646Z,55.7
2018-11-04T16:30:19.461Z,63.2
2018-11-04T16:32:19.232Z,63.4
2018-11-04T16:34:18.968Z,82.3
2018-11-04T16:36:19.477Z,71.3
2018-11-04T16:38:19.243Z,60.5
2018-11-04T16:40:19.502Z,66.5
2018-11-04T16:42:19.264Z,70.7
2018-11-04T16:44:19.618Z,83.8
2018-11-04T16:46:19.556Z,85.3
2018-11-04T16:48:19.326Z,79.8
2018-11-04T16:50:19.098Z,78.1
2018-11-04T16:52:18.856Z,79.5
2018-11-04T16:54:19.647Z,71
2018-11-04T16:56:18.975Z,77
2018-11-04T16:58:18.757Z,79.1
2018-11-04T17:00:19.514Z,96.4
2018-11-04T17:02:19.248Z,81.4
2018-11-04T17:04:19.358Z,76.6
2018-11-04T17:06:19.714Z,87.8
2018-11-04T17:08:19.521Z,67.3
2018-11-04T17:10:18.851Z,109.3
2018-11-04T17:12:19.639Z,85.6
2018-11-04T17:14:19.395Z,84.6
2018-11-04T17:16:19.487Z,92.3
2018-11-04T17:18:19.596Z,73.2
2018-11-04T17:20:19.529Z,102.2
2018-11-04T17:22:19.339Z,91.3
2018-11-04T17:24:19.098Z,82.2
2018-11-04T17:26:19.635Z,88.3
2018-11-04T17:28:19.434Z,82.9
2018-11-04T17:30:19.289Z,83.3
2018-11-04T17:32:19.052Z,85.4
2018-11-04T17:34:18.821Z,75.1
2018-11-04T17:36:19.434Z,96.4
2018-11-04T17:38:19.184Z,72.2
2018-11-04T17:40:19.485Z,67
2018-11-04T17:42:19.241Z,79.6
2018-11-04T17:44:19.360Z,88.1
2018-11-04T17:46:19.512Z,79
2018-11-04T17:48:19.258Z,87.6
2018-11-04T17:50:19.025Z,67.9
2018-11-04T17:52:19.701Z,85.4
2018-11-04T17:54:19.455Z,87.1
2018-11-04T17:56:19.532Z,67.1
2018-11-04T17:58:19.296Z,70
2018-11-04T18:00:19.163Z,74.3
2018-11-04T18:02:18.996Z,90
2018-11-04T18:04:18.779Z,63.9
2018-11-04T18:06:19.498Z,61.1
2018-11-04T18:08:19.363Z,56.3
2018-11-04T18:10:19.655Z,60
2018-11-04T18:12:19.396Z,79.8
2018-11-04T18:14:19.149Z,65.4
2018-11-04T18:16:19.223Z,62.3
2018-11-04T18:18:19.055Z,82.8
2018-11-04T18:20:18.906Z,72.7
2018-11-04T18:22:19.661Z,62.3
2018-11-04T18:24:19.494Z,69.4
2018-11-04T18:26:19.375Z,70.8
2018-11-04T18:28:19.259Z,63.9
2018-11-04T18:30:19.013Z,56.3
2018-11-04T18:32:19.093Z,63.2
2018-11-04T18:34:18.940Z,71.9
2018-11-04T18:36:19.083Z,60.6
2018-11-04T18:38:18.837Z,58.2
2018-11-04T18:40:19.043Z,64.5
2018-11-04T18:42:18.810Z,55.4
2018-11-04T18:44:19.846Z,54.6
2018-11-04T18:46:19.678Z,52.8
2018-11-04T18:48:19.405Z,55.8
2018-11-04T18:50:19.258Z,52.4
2018-11-04T18:52:19.150Z,49.4
2018-11-04T18:54:19.027Z,50.3
2018-11-04T18:56:19.135Z,66
2018-11-04T18:58:18.898Z,50.7
2018-11-04T19:00:19.713Z,53.2
2018-11-04T19:02:19.492Z,48.7
2018-11-04T19:04:19.227Z,56.3
2018-11-04T19:06:19.561Z,43.4
2018-11-04T19:08:19.363Z,49.7
2018-11-04T19:10:19.624Z,39.9
2018-11-04T19:12:19.429Z,40.3
2018-11-04T19:14:19.177Z,49.3
2018-11-04T19:16:19.363Z,50
2018-11-04T19:18:19.216Z,48.9
2018-11-04T19:20:19.015Z,41.4
2018-11-04T19:22:18.770Z,39.1
2018-11-04T19:24:19.578Z,43.4
2018-11-04T19:26:19.626Z,45.3
2018-11-04T19:28:19.359Z,44.5
2018-11-04T19:30:19.113Z,43
2018-11-04T19:32:18.871Z,41
2018-11-04T19:34:19.624Z,41.4
2018-11-04T19:36:18.705Z,46.4
2018-11-04T19:38:19.451Z,52.5
2018-11-04T19:40:19.632Z,40.8
2018-11-04T19:42:19.547Z,44.4
2018-11-04T19:44:19.309Z,39.8
2018-11-04T19:46:18.720Z,44.6
2018-11-04T19:48:19.872Z,49.3
2018-11-04T19:50:19.709Z,47
2018-11-04T19:52:19.473Z,44.4
2018-11-04T19:54:19.222Z,42.5
2018-11-04T19:56:19.405Z,44.8
2018-11-04T19:58:19.200Z,37.1
2018-11-04T20:00:18.946Z,48.1
2018-11-04T20:02:18.693Z,41.4
2018-11-04T20:04:19.482Z,48.8
2018-11-04T20:06:19.611Z,40.7
2018-11-04T20:08:19.365Z,39.9
2018-11-04T20:10:19.616Z,47.9
2018-11-04T20:12:19.331Z,53.2
2018-11-04T20:14:19.093Z,39.4
2018-11-04T20:16:18.737Z,42.1
2018-11-04T20:18:19.577Z,46.1
2018-11-04T20:20:19.684Z,54.2
2018-11-04T20:22:19.581Z,47
2018-11-04T20:24:19.324Z,38.6
2018-11-04T20:26:19.443Z,41.5
2018-11-04T20:28:19.220Z,43.4
2018-11-04T20:30:19.020Z,52
2018-11-04T20:32:18.751Z,35.2
2018-11-04T20:34:19.521Z,52.4
2018-11-04T20:36:19.508Z,39
2018-11-04T20:38:19.274Z,50.5
2018-11-04T20:40:19.534Z,35.7
2018-11-04T20:42:19.310Z,41.6
2018-11-04T20:44:19.086Z,37.5
2018-11-04T20:46:19.707Z,42.2
2018-11-04T20:48:19.492Z,38.3
2018-11-04T20:50:19.280Z,51.7
2018-11-04T20:52:19.118Z,38.2
2018-11-04T20:54:18.855Z,49.2
2018-11-04T20:56:18.858Z,48.4
2018-11-04T20:58:20.199Z,48.1
2018-11-04T21:00:19.100Z,36.5
2018-11-04T21:02:19.424Z,43.4
2018-11-04T21:04:19.327Z,36.9
2018-11-04T21:06:18.790Z,43.7
2018-11-04T21:08:19.553Z,34.5
2018-11-04T21:10:18.759Z,37.9
2018-11-04T21:12:19.497Z,30.7
2018-11-04T21:14:19.322Z,42.9
2018-11-04T21:16:19.546Z,36.4
2018-11-04T21:18:19.461Z,35.5
2018-11-04T21:20:19.295Z,36.3
2018-11-04T21:22:19.064Z,41.4
2018-11-04T21:24:18.822Z,45.4
2018-11-04T21:26:19.546Z,41.6
2018-11-04T21:28:19.578Z,32.8
2018-11-04T21:30:19.421Z,37.6
2018-11-04T21:32:19.213Z,37.4
2018-11-04T21:34:19.019Z,34.9
2018-11-04T21:36:19.473Z,35.3
2018-11-04T21:38:19.334Z,34
2018-11-04T21:40:19.557Z,40.6
2018-11-04T21:42:19.487Z,31
2018-11-04T21:44:19.642Z,35.3
2018-11-04T21:46:18.846Z,34
2018-11-04T21:48:19.630Z,33.2
2018-11-04T21:50:19.413Z,29.9
2018-11-04T21:52:19.156Z,28.7
2018-11-04T21:54:18.922Z,41.7
2018-11-04T21:56:19.120Z,34.8
2018-11-04T21:58:18.956Z,30.6
2018-11-04T22:00:18.710Z,38.9
2018-11-04T22:02:19.869Z,35.1
2018-11-04T22:04:19.068Z,30.9
2018-11-04T22:06:19.270Z,34.3
2018-11-04T22:08:19.060Z,31.4
2018-11-04T22:10:19.341Z,31.4
2018-11-04T22:12:19.168Z,34.6
2018-11-04T22:14:18.948Z,31.1
2018-11-04T22:16:19.387Z,28.3
2018-11-04T22:18:19.197Z,44.2
2018-11-04T22:20:18.960Z,32.9
2018-11-04T22:22:18.970Z,34.9
2018-11-04T22:24:18.742Z,30
2018-11-04T22:26:18.785Z,35.7
2018-11-04T22:28:19.540Z,36
2018-11-04T22:30:19.295Z,39.1
2018-11-04T22:32:19.062Z,29.5
2018-11-04T22:34:18.812Z,31.6
2018-11-04T22:36:18.861Z,38.5
2018-11-04T22:38:19.640Z,41.2
2018-11-04T22:40:18.943Z,34.2
2018-11-04T22:42:19.023Z,37.4
2018-11-04T22:44:18.869Z,34
2018-11-04T22:46:19.249Z,24.6
2018-11-04T22:48:19.012Z,32.1
2018-11-04T22:50:18.746Z,33
2018-11-04T22:52:19.489Z,33.3
2018-11-04T22:54:19.258Z,38.4
2018-11-04T22:56:19.364Z,34.8
2018-11-04T22:58:19.145Z,41.1
2018-11-04T23:00:18.892Z,36.6
2018-11-04T23:02:19.681Z,51.3
2018-11-04T23:04:19.436Z,36.4
2018-11-04T23:06:18.899Z,43.2
2018-11-04T23:08:19.685Z,54.4
2018-11-04T23:10:19.134Z,45.7
2018-11-04T23:12:18.875Z,38.7
2018-11-04T23:14:19.686Z,35.9
2018-11-04T23:16:19.259Z,42.1
2018-11-04T23:18:19.123Z,40.5
2018-11-04T23:20:18.938Z,46.5
2018-11-04T23:22:19.490Z,33.7
2018-11-04T23:24:19.226Z,34.3
2018-11-04T23:26:18.720Z,37.1
2018-11-04T23:28:19.464Z,41.7
2018-11-04T23:30:19.234Z,43
2018-11-04T23:32:19.401Z,49.2
2018-11-04T23:34:19.144Z,44.7
2018-11-04T23:36:19.149Z,40.2
2018-11-04T23:38:18.923Z,36.6
2018-11-04T23:40:19.148Z,40
2018-11-04T23:42:18.886Z,44.6
2018-11-04T23:44:19.670Z,43.6
2018-11-04T23:46:19.152Z,40
2018-11-04T23:48:18.901Z,39.4
2018-11-04T23:50:19.635Z,42.9
2018-11-04T23:52:19.406Z,46.7
2018-11-04T23:54:19.154Z,53.4
2018-11-04T23:56:19.410Z,36.4
2018-11-04T23:58:19.176Z,41.2
